Foreman, Arkansas
Current Conditions -  °F | °C
As of 3:53 AM on Saturday 29 Nov 2014 (Local Time) from KDEQ Reporting Station
Moderate Fog Moderate Fog  
Wind Chill: 40°   Ceiling: 900
Heat Index: 40°   Visibility: 0.25mi
Dew Point: 39°   Wind: 0mph
Humidity: 97%   Direction: NA
Pressure: 29.98"   Gusts: NA
Location:  33.72°N, 94.4°W
Report Text: KDEQ 290953Z AUTO 00000KT 1/4SM FG VV009 04/04 A2998 RMK AO2 SLP151 T00440039
Loading
Personal Weather Stations






























Interactive Weather Map New forecast layout! Learn more

10-Day Weather Forecast

Advertisements
Track Severe Weather on mobile